Time;durP1;ratioP1;P1;durP2;ratioP2;P2;SDS_P1;SDS_P2;PMS_P1;PMS_P2;Temp;Humidity;BMP_temperature;BMP_pressure;BME280_temperature;BME280_humidity;BME280_pressure;Samples;Min_cycle;Max_cycle;Signal;HPM_P1;HPM_P2
2023/03/26 00:01:45;;;;;;;42.95;36.83;;;29.20;93.40;;;;;;1864143;77;21624;-82
2023/03/26 00:04:20;;;;;;;39.78;35.50;;;;;;;;;;1854173;75;21242;-83
2023/03/26 00:06:52;;;;;;;41.37;36.25;;;28.90;74.70;;;;;;1865630;76;21149;-81
2023/03/26 00:09:23;;;;;;;40.48;36.10;;;29.00;75.50;;;;;;1880707;75;22247;-82
2023/03/26 00:11:55;;;;;;;46.00;37.05;;;29.10;76.20;;;;;;1869699;75;21215;-81
2023/03/26 00:14:29;;;;;;;45.70;36.17;;;29.00;76.30;;;;;;1863187;76;21191;-81
2023/03/26 00:17:01;;;;;;;46.18;38.02;;;29.00;76.00;;;;;;1859226;77;21230;-82
2023/03/26 00:19:32;;;;;;;44.05;37.63;;;29.10;75.80;;;;;;1845523;77;21137;-82
2023/03/26 00:22:03;;;;;;;47.05;37.93;;;29.10;76.20;;;;;;1863735;75;21200;-82
2023/03/26 00:24:36;;;;;;;47.73;37.35;;;29.10;76.10;;;;;;1864103;75;21902;-81
2023/03/26 00:27:07;;;;;;;50.83;37.67;;;29.20;75.70;;;;;;1861600;75;21129;-82
2023/03/26 00:29:38;;;;;;;45.58;38.08;;;29.30;76.00;;;;;;1865358;75;21251;-81
2023/03/26 00:32:09;;;;;;;49.40;36.73;;;29.30;76.00;;;;;;1855828;75;21172;-81
2023/03/26 00:34:41;;;;;;;43.35;36.33;;;29.40;75.80;;;;;;1857301;75;21473;-82
2023/03/26 00:37:13;;;;;;;45.55;37.33;;;29.40;75.40;;;;;;1853320;75;21171;-81
2023/03/26 00:39:48;;;;;;;47.05;38.53;;;29.40;75.30;;;;;;1852033;76;21235;-82
2023/03/26 00:42:17;;;;;;;50.92;37.63;;;29.50;75.30;;;;;;1851171;76;21181;-82
2023/03/26 00:44:50;;;;;;;42.60;37.95;;;29.60;74.40;;;;;;1852693;76;21141;-83
2023/03/26 00:47:21;;;;;;;47.88;37.93;;;29.70;75.00;;;;;;1845123;76;21489;-83
2023/03/26 00:49:52;;;;;;;45.03;37.28;;;29.70;74.80;;;;;;1848176;77;21667;-82
2023/03/26 00:52:23;;;;;;;46.25;37.13;;;29.70;74.60;;;;;;1858100;76;21196;-82
2023/03/26 00:54:55;;;;;;;43.58;36.23;;;29.70;75.10;;;;;;1861535;76;21161;-82
2023/03/26 00:57:28;;;;;;;40.80;35.13;;;29.70;74.70;;;;;;1847843;76;21183;-82
2023/03/26 01:00:13;;;;;;;42.23;35.23;;;29.70;73.20;;;;;;1847575;77;21593;-80
2023/03/26 01:02:33;;;;;;;42.67;35.60;;;29.70;75.00;;;;;;1853037;76;21188;-76
2023/03/26 01:05:24;;;;;;;41.37;34.60;;;29.80;74.50;;;;;;1850228;76;21199;-76
2023/03/26 01:07:58;;;;;;;41.73;34.05;;;29.80;74.20;;;;;;1849037;77;21227;-75
2023/03/26 01:10:37;;;;;;;41.05;33.40;;;29.90;75.10;;;;;;1845596;76;21879;-77
2023/03/26 01:13:02;;;;;;;39.05;33.53;;;30.00;74.50;;;;;;1846428;77;21132;-76
2023/03/26 01:15:36;;;;;;;38.17;32.00;;;30.10;73.50;;;;;;1849004;76;21156;-76
2023/03/26 01:18:12;;;;;;;37.80;33.42;;;30.10;73.20;;;;;;1843487;76;21172;-76
2023/03/26 01:20:45;;;;;;;36.75;31.97;;;30.10;73.90;;;;;;1849402;76;21498;-75
2023/03/26 01:23:18;;;;;;;39.03;32.67;;;30.20;73.00;;;;;;1850212;77;21161;-75
2023/03/26 01:25:52;;;;;;;40.92;32.73;;;30.30;72.80;;;;;;1853245;77;21126;-77
2023/03/26 01:28:24;;;;;;;36.80;30.77;;;30.30;72.70;;;;;;1837983;77;21210;-78
2023/03/26 01:31:05;;;;;;;35.50;29.72;;;30.30;72.80;;;;;;1841489;77;21274;-76
2023/03/26 01:33:41;;;;;;;33.15;29.32;;;30.40;71.50;;;;;;1848194;77;21187;-75
2023/03/26 01:36:16;;;;;;;39.58;31.30;;;30.50;71.10;;;;;;1843436;76;21133;-73
2023/03/26 01:39:05;;;;;;;34.40;28.32;;;30.50;71.90;;;;;;1863297;76;21156;-74
2023/03/26 01:41:45;;;;;;;49.93;28.50;;;30.70;70.70;;;;;;1852468;77;21247;-74
2023/03/26 01:44:33;;;;;;;154.87;40.43;;;30.70;70.20;;;;;;1856713;76;21172;-74
2023/03/26 01:47:06;;;;;;;35.15;26.68;;;30.80;70.10;;;;;;1850363;76;21216;-76
2023/03/26 01:49:37;;;;;;;34.03;26.73;;;30.90;69.60;;;;;;1861762;76;21195;-74
2023/03/26 01:52:16;;;;;;;33.67;26.17;;;31.00;68.70;;;;;;1852856;77;21607;-76
2023/03/26 01:54:49;;;;;;;30.27;27.00;;;31.00;68.70;;;;;;1860900;75;21160;-75
2023/03/26 01:57:40;;;;;;;30.80;26.25;;;31.10;69.20;;;;;;1864577;77;21911;-75
2023/03/26 02:00:19;;;;;;;28.62;25.40;;;31.20;68.70;;;;;;1857477;77;21367;-73
2023/03/26 02:03:18;;;;;;;31.30;26.17;;;31.30;68.20;;;;;;1862672;76;21168;-75
2023/03/26 02:06:23;;;;;;;32.98;26.50;;;31.40;68.10;;;;;;1855869;76;21124;-74
2023/03/26 02:09:02;;;;;;;31.15;26.05;;;31.50;67.60;;;;;;1809951;79;21171;-75
2023/03/26 02:11:35;;;;;;;34.00;26.77;;;31.60;67.20;;;;;;1847276;77;21176;-74
2023/03/26 02:14:08;;;;;;;32.40;24.52;;;31.70;67.10;;;;;;1839888;77;21639;-75
2023/03/26 02:16:39;;;;;;;32.55;24.45;;;31.80;67.00;;;;;;1850395;77;21137;-76
2023/03/26 02:19:14;;;;;;;30.12;24.20;;;31.90;66.30;;;;;;1861940;75;21690;-75
2023/03/26 02:21:44;;;;;;;26.55;21.97;;;32.00;65.50;;;;;;1876160;75;21152;-75
2023/03/26 02:24:15;;;;;;;25.95;23.15;;;32.10;63.70;;;;;;1880129;75;21265;-74
2023/03/26 02:26:47;;;;;;;24.25;21.65;;;32.20;63.20;;;;;;1870659;75;21160;-75
2023/03/26 02:29:19;;;;;;;25.00;21.85;;;32.40;63.30;;;;;;1889047;75;21446;-74
2023/03/26 02:31:51;;;;;;;29.52;23.47;;;32.50;62.90;;;;;;1865778;75;21609;-75
2023/03/26 02:34:22;;;;;;;32.55;25.25;;;32.60;61.50;;;;;;1876835;75;21202;-76
2023/03/26 02:36:56;;;;;;;24.45;21.48;;;;;;;;;;1876560;75;21097;-74
2023/03/26 02:39:27;;;;;;;26.55;22.22;;;32.80;59.60;;;;;;1869346;76;21462;-74
2023/03/26 02:41:59;;;;;;;29.15;23.75;;;32.90;59.90;;;;;;1853169;76;21221;-76
2023/03/26 02:44:30;;;;;;;29.72;24.27;;;32.90;59.50;;;;;;1857223;76;21203;-75
2023/03/26 02:47:02;;;;;;;27.73;23.98;;;33.00;60.00;;;;;;1814902;77;21256;-76
2023/03/26 02:49:35;;;;;;;30.05;22.25;;;33.00;60.80;;;;;;1821870;77;21441;-76
2023/03/26 02:52:06;;;;;;;27.73;22.48;;;33.20;59.70;;;;;;1815760;77;21248;-75
2023/03/26 02:54:37;;;;;;;25.23;21.50;;;33.30;60.10;;;;;;1850269;76;21428;-75
2023/03/26 02:57:08;;;;;;;25.65;21.87;;;;;;;;;;1849964;76;21175;-75
2023/03/26 02:59:42;;;;;;;25.62;22.02;;;33.50;58.90;;;;;;1849478;76;21170;-77
2023/03/26 03:02:13;;;;;;;27.98;23.35;;;33.60;59.50;;;;;;1862284;76;21719;-74
2023/03/26 03:04:44;;;;;;;26.73;20.95;;;33.80;58.80;;;;;;1845403;76;21610;-76
2023/03/26 03:07:15;;;;;;;24.77;20.40;;;33.90;60.30;;;;;;1846474;77;21166;-74
2023/03/26 03:09:49;;;;;;;22.60;19.02;;;34.10;62.00;;;;;;1834928;77;21160;-77
2023/03/26 03:12:19;;;;;;;23.18;19.30;;;34.10;59.30;;;;;;1813967;78;21443;-75
2023/03/26 03:14:50;;;;;;;22.55;19.45;;;34.10;57.40;;;;;;1815675;78;21596;-74
2023/03/26 03:17:21;;;;;;;24.00;19.05;;;34.10;57.10;;;;;;1832402;77;21185;-74
2023/03/26 03:19:52;;;;;;;21.42;18.25;;;34.20;57.10;;;;;;1815136;79;21620;-75
2023/03/26 03:22:23;;;;;;;25.57;20.17;;;34.40;56.90;;;;;;1812100;77;21294;-76
2023/03/26 03:25:13;;;;;;;29.00;23.32;;;34.40;56.30;;;;;;1825760;77;21638;-76
2023/03/26 03:27:43;;;;;;;22.10;19.48;;;34.60;56.00;;;;;;1807215;79;21578;-76
2023/03/26 03:30:15;;;;;;;21.23;18.92;;;34.70;54.90;;;;;;1861850;76;21122;-75
2023/03/26 03:32:46;;;;;;;24.10;19.25;;;34.80;55.10;;;;;;1861525;76;21239;-76
2023/03/26 03:35:18;;;;;;;26.48;21.45;;;34.90;54.70;;;;;;1862512;76;21142;-75
2023/03/26 03:37:49;;;;;;;27.17;22.02;;;35.00;54.00;;;;;;1810318;79;21242;-74
2023/03/26 03:40:30;;;;;;;22.60;20.17;;;35.00;53.90;;;;;;1814473;79;21212;-77
2023/03/26 03:43:08;;;;;;;25.97;22.27;;;35.10;54.00;;;;;;1806311;77;21160;-74
2023/03/26 03:45:39;;;;;;;29.15;22.70;;;35.30;53.10;;;;;;1811004;79;21154;-75
2023/03/26 03:48:10;;;;;;;26.33;21.40;;;35.30;52.50;;;;;;1815577;79;21164;-74
2023/03/26 03:50:41;;;;;;;29.32;21.87;;;35.30;52.10;;;;;;1848782;77;21219;-75
2023/03/26 03:53:14;;;;;;;26.25;20.88;;;35.40;52.50;;;;;;1843659;77;21159;-74
2023/03/26 03:55:52;;;;;;;30.52;23.57;;;35.40;52.10;;;;;;1793821;79;21156;-75
2023/03/26 03:58:24;;;;;;;26.02;22.02;;;35.50;52.10;;;;;;1794607;80;21093;-74
2023/03/26 04:01:02;;;;;;;29.48;21.52;;;35.60;51.40;;;;;;1848357;77;21148;-75
2023/03/26 04:03:29;;;;;;;24.05;21.52;;;35.70;51.20;;;;;;1817118;79;21302;-75
2023/03/26 04:06:01;;;;;;;24.20;20.52;;;35.90;50.40;;;;;;1811671;77;21168;-74
2023/03/26 04:08:33;;;;;;;31.62;22.15;;;35.90;50.90;;;;;;1824701;77;21147;-74
2023/03/26 04:11:05;;;;;;;25.50;21.40;;;35.90;51.20;;;;;;1829893;78;21139;-74
2023/03/26 04:13:36;;;;;;;33.20;22.95;;;36.00;50.50;;;;;;1817924;79;21465;-74
2023/03/26 04:16:07;;;;;;;28.95;23.32;;;36.10;50.50;;;;;;1835944;78;21187;-74
2023/03/26 04:18:39;;;;;;;34.48;23.12;;;36.10;50.40;;;;;;1837430;78;21627;-75
2023/03/26 04:21:14;;;;;;;34.00;21.40;;;36.20;50.10;;;;;;1816152;78;21067;-76
2023/03/26 04:23:44;;;;;;;36.28;22.15;;;36.20;52.10;;;;;;1830134;77;21474;-75
2023/03/26 04:26:18;;;;;;;31.73;23.05;;;36.30;50.60;;;;;;1814060;79;21200;-75
2023/03/26 04:28:58;;;;;;;25.52;22.87;;;36.30;49.00;;;;;;1821903;78;21897;-75
2023/03/26 04:31:30;;;;;;;26.87;23.25;;;36.30;49.00;;;;;;1805733;79;21191;-75
2023/03/26 04:34:13;;;;;;;36.83;23.07;;;36.30;48.90;;;;;;1848004;76;21203;-75
2023/03/26 04:36:45;;;;;;;36.60;25.00;;;36.40;49.70;;;;;;1843692;76;21202;-76
2023/03/26 04:39:16;;;;;;;23.10;20.72;;;36.50;60.60;;;;;;1864574;74;21165;-75
2023/03/26 04:41:47;;;;;;;39.33;26.73;;;36.50;51.30;;;;;;1869878;75;21181;-74
2023/03/26 04:44:21;;;;;;;29.35;22.05;;;36.60;50.80;;;;;;1876417;75;21124;-75
2023/03/26 04:46:56;;;;;;;30.37;21.70;;;36.70;59.50;;;;;;1861480;76;21148;-75
2023/03/26 04:49:23;;;;;;;27.82;22.52;;;;;;;;;;1845161;76;21640;-74
2023/03/26 04:51:54;;;;;;;25.82;21.62;;;36.70;62.50;;;;;;1815381;77;21427;-73
2023/03/26 04:54:26;;;;;;;25.05;22.45;;;;;;;;;;1832407;77;21946;-75
2023/03/26 04:56:59;;;;;;;22.85;20.32;;;37.00;84.80;;;;;;1858344;77;21124;-75
2023/03/26 04:59:35;;;;;;;22.13;19.67;;;37.10;66.10;;;;;;1862377;76;21175;-74
2023/03/26 05:02:08;;;;;;;22.82;19.57;;;37.10;59.10;;;;;;1840449;77;21995;-74
2023/03/26 05:04:39;;;;;;;23.85;20.23;;;37.10;57.30;;;;;;1845113;77;21926;-75
2023/03/26 05:07:11;;;;;;;24.80;19.17;;;37.10;56.70;;;;;;1864809;75;21141;-75
2023/03/26 05:09:42;;;;;;;23.07;19.48;;;37.20;56.70;;;;;;1865329;75;21254;-74
2023/03/26 05:12:16;;;;;;;20.15;17.85;;;37.30;56.30;;;;;;1853207;77;21128;-75
2023/03/26 05:14:47;;;;;;;23.50;19.57;;;37.30;56.70;;;;;;1851678;75;21174;-75
2023/03/26 05:17:20;;;;;;;23.10;20.57;;;37.40;57.10;;;;;;1868508;75;21137;-74
2023/03/26 05:19:51;;;;;;;17.85;15.08;;;37.40;58.20;;;;;;1878512;75;21859;-74
2023/03/26 05:22:22;;;;;;;18.82;16.27;;;37.40;59.90;;;;;;1862294;77;21168;-74
2023/03/26 05:24:53;;;;;;;20.75;17.80;;;37.50;66.40;;;;;;1865929;77;21153;-75
2023/03/26 05:27:24;;;;;;;20.52;16.15;;;37.40;68.50;;;;;;1858666;77;21160;-74
2023/03/26 05:29:58;;;;;;;20.40;14.93;;;37.40;67.70;;;;;;1848640;75;21136;-74
2023/03/26 05:32:30;;;;;;;16.77;14.68;;;37.50;66.40;;;;;;1846383;75;21226;-74
2023/03/26 05:35:02;;;;;;;19.45;15.70;;;37.50;66.20;;;;;;1880067;75;21234;-74
2023/03/26 05:37:34;;;;;;;16.93;15.13;;;37.50;66.50;;;;;;1857909;77;21215;-74
2023/03/26 05:40:11;;;;;;;21.35;17.00;;;37.50;67.30;;;;;;1862004;76;21215;-73
2023/03/26 05:42:40;;;;;;;19.23;17.20;;;37.50;67.50;;;;;;1845688;76;21199;-74
2023/03/26 05:45:15;;;;;;;20.12;17.48;;;37.60;69.30;;;;;;1862993;75;21210;-76
2023/03/26 05:47:53;;;;;;;20.48;17.90;;;37.60;74.50;;;;;;1818985;77;21206;-75
2023/03/26 05:50:24;;;;;;;25.50;18.42;;;;;;;;;;1867894;76;21155;-73
2023/03/26 05:52:57;;;;;;;24.23;16.97;;;37.70;80.90;;;;;;1838252;77;21175;-73
2023/03/26 05:55:28;;;;;;;20.35;17.35;;;37.70;78.70;;;;;;1862030;75;21148;-74
2023/03/26 05:57:59;;;;;;;21.77;18.50;;;37.80;70.00;;;;;;1866006;75;21859;-73
2023/03/26 06:00:32;;;;;;;21.12;18.95;;;37.80;68.40;;;;;;1855452;75;21212;-73
2023/03/26 06:03:03;;;;;;;26.30;21.68;;;37.90;70.40;;;;;;1874040;75;21592;-72
2023/03/26 06:05:39;;;;;;;25.72;19.40;;;37.90;73.10;;;;;;1873278;75;21108;-73
2023/03/26 06:08:10;;;;;;;24.77;20.37;;;38.00;74.40;;;;;;1875951;75;21148;-73
2023/03/26 06:10:42;;;;;;;26.80;19.80;;;37.90;73.90;;;;;;1881948;75;21550;-74
2023/03/26 06:13:15;;;;;;;21.65;19.52;;;37.80;74.80;;;;;;1883227;75;21138;-74
2023/03/26 06:15:49;;;;;;;21.70;19.55;;;37.90;74.10;;;;;;1871333;75;21156;-73
2023/03/26 06:18:21;;;;;;;23.70;19.45;;;37.80;75.50;;;;;;1897450;75;21804;-74
2023/03/26 06:20:53;;;;;;;22.35;19.87;;;37.80;74.60;;;;;;1859107;75;21180;-73
2023/03/26 06:23:24;;;;;;;23.25;19.65;;;37.90;74.00;;;;;;1862246;76;21168;-75
2023/03/26 06:25:56;;;;;;;20.30;18.20;;;38.00;73.80;;;;;;1865151;75;21137;-75
2023/03/26 06:28:27;;;;;;;22.77;18.57;;;37.90;73.00;;;;;;1860430;75;21986;-74
2023/03/26 06:31:03;;;;;;;22.32;17.75;;;38.00;73.00;;;;;;1845606;76;21450;-74
2023/03/26 06:33:35;;;;;;;25.17;17.52;;;37.90;73.00;;;;;;1792253;77;21526;-74
2023/03/26 06:36:06;;;;;;;18.40;16.45;;;37.90;73.30;;;;;;1857018;76;21139;-75
2023/03/26 06:38:37;;;;;;;20.52;17.02;;;37.90;72.40;;;;;;1856250;76;21188;-73
2023/03/26 06:41:08;;;;;;;20.95;16.75;;;38.00;71.10;;;;;;1861487;75;21179;-75
2023/03/26 06:43:40;;;;;;;19.02;17.12;;;37.90;71.00;;;;;;1827840;77;21170;-74
2023/03/26 06:46:12;;;;;;;21.33;17.50;;;38.10;72.40;;;;;;1825490;77;21173;-75
2023/03/26 06:48:43;;;;;;;19.92;17.70;;;38.00;72.20;;;;;;1792293;80;21606;-74
2023/03/26 06:51:14;;;;;;;20.97;17.55;;;38.00;74.50;;;;;;1814523;79;21205;-73
2023/03/26 06:53:46;;;;;;;19.07;16.50;;;;;;;;;;1816467;78;21169;-73
2023/03/26 06:56:17;;;;;;;19.87;17.12;;;;;;;;;;1840031;77;21205;-73
2023/03/26 06:58:49;;;;;;;17.37;15.63;;;;;;;;;;1816562;78;21280;-72
2023/03/26 07:01:20;;;;;;;20.75;16.73;;;;;;;;;;1827671;77;21223;-72
2023/03/26 07:03:52;;;;;;;20.40;16.32;;;;;;;;;;1820608;77;21538;-71
2023/03/26 07:06:23;;;;;;;17.45;15.65;;;;;;;;;;1804632;78;21194;-72
2023/03/26 07:08:56;;;;;;;21.37;15.68;;;;;;;;;;1804331;77;21151;-72
2023/03/26 07:11:28;;;;;;;19.85;16.23;;;;;;;;;;1813728;79;21229;-74
2023/03/26 07:13:58;;;;;;;16.32;14.70;;;;;;;;;;1813876;79;21173;-75
2023/03/26 07:16:30;;;;;;;22.58;16.75;;;;;;;;;;1813265;79;21143;-72
2023/03/26 07:19:00;;;;;;;20.00;16.17;;;;;;;;;;1813011;78;21296;-75
2023/03/26 07:21:32;;;;;;;18.15;16.35;;;;;;;;;;1834962;78;21089;-75
2023/03/26 07:24:03;;;;;;;20.02;17.02;;;;;;;;;;1813676;78;21420;-73
2023/03/26 07:26:35;;;;;;;19.20;17.05;;;;;;;;;;1813779;78;21174;-75
2023/03/26 07:29:10;;;;;;;20.80;16.50;;;;;;;;;;1814761;78;21180;-73
2023/03/26 07:31:51;;;;;;;20.33;17.23;;;;;;;;;;1820350;78;21220;-76
2023/03/26 07:34:30;;;;;;;19.00;17.10;;;;;;;;;;1827569;78;21659;-82
2023/03/26 07:37:05;;;;;;;21.02;17.70;;;;;;;;;;1824911;78;21183;-81
2023/03/26 07:39:37;;;;;;;23.25;17.92;;;;;;;;;;1824819;78;21845;-80
2023/03/26 07:42:18;;;;;;;20.30;17.70;;;;;;;;;;1815765;77;22019;-82
2023/03/26 07:44:55;;;;;;;21.75;19.37;;;;;;;;;;1791424;80;21103;-82
2023/03/26 07:47:35;;;;;;;20.68;18.27;;;;;;;;;;1807735;78;21129;-82
2023/03/26 07:50:07;;;;;;;20.05;18.02;;;;;;;;;;1823584;78;21141;-81
2023/03/26 07:52:38;;;;;;;18.85;16.95;;;;;;;;;;1817362;78;21617;-80
2023/03/26 07:55:10;;;;;;;21.57;18.20;;;;;;;;;;1841364;77;21177;-82
2023/03/26 07:57:54;;;;;;;22.15;19.95;;;;;;;;;;1849205;77;21126;-82
2023/03/26 08:00:26;;;;;;;21.75;19.45;;;;;;;;;;1840571;77;21193;-83
2023/03/26 08:03:14;;;;;;;22.22;19.50;;;37.90;76.40;;;;;;1842176;77;21204;-81
2023/03/26 08:05:49;;;;;;;23.40;18.82;;;;;;;;;;1836977;77;21231;-82
2023/03/26 08:08:23;;;;;;;28.12;18.85;;;38.00;76.60;;;;;;1838797;76;21658;-82
2023/03/26 08:11:08;;;;;;;29.10;20.08;;;38.00;77.90;;;;;;1827466;78;21437;-80
2023/03/26 08:13:52;;;;;;;23.47;19.27;;;;;;;;;;1827123;78;21102;-81
2023/03/26 08:16:24;;;;;;;23.05;19.55;;;;;;;;;;1826692;78;21158;-80
2023/03/26 08:19:00;;;;;;;21.75;19.52;;;37.90;76.70;;;;;;1829616;77;21154;-81
2023/03/26 08:21:40;;;;;;;23.83;19.35;;;37.90;77.40;;;;;;1831057;76;21498;-79
2023/03/26 08:24:42;;;;;;;21.65;19.37;;;37.90;77.40;;;;;;1833943;77;21126;-80
2023/03/26 08:27:28;;;;;;;21.65;19.55;;;38.00;77.40;;;;;;1802571;80;21157;-78
2023/03/26 08:30:09;;;;;;;22.32;19.90;;;;;;;;;;1835311;77;21231;-81
2023/03/26 08:32:41;;;;;;;23.38;20.37;;;37.90;76.50;;;;;;1828063;77;21133;-80
2023/03/26 08:35:14;;;;;;;22.37;19.77;;;37.90;76.30;;;;;;1820281;78;21146;-77
2023/03/26 08:37:45;;;;;;;22.93;18.92;;;37.90;76.20;;;;;;1821815;78;21685;-80
2023/03/26 08:40:19;;;;;;;21.70;19.50;;;37.90;76.10;;;;;;1803786;77;21146;-80
2023/03/26 08:42:52;;;;;;;22.82;19.00;;;38.00;75.80;;;;;;1839122;77;21123;-78
2023/03/26 08:45:30;;;;;;;21.77;19.48;;;37.90;75.60;;;;;;1819023;77;21683;-79
2023/03/26 08:48:19;;;;;;;22.67;20.27;;;38.00;76.20;;;;;;1857539;76;21753;-80
2023/03/26 08:51:11;;;;;;;25.20;21.40;;;38.00;76.20;;;;;;1811219;79;21188;-80
2023/03/26 08:54:03;;;;;;;24.25;21.37;;;37.90;76.20;;;;;;1804787;79;21281;-80
2023/03/26 08:57:05;;;;;;;25.12;21.33;;;37.90;76.30;;;;;;1799826;79;21254;-80
2023/03/26 09:00:04;;;;;;;24.15;21.25;;;38.00;76.00;;;;;;1791841;79;21180;-81
2023/03/26 09:02:47;;;;;;;23.55;20.57;;;37.90;76.00;;;;;;1834505;77;21186;-80
2023/03/26 09:05:46;;;;;;;23.30;20.75;;;38.00;76.40;;;;;;1824440;77;21135;-80
2023/03/26 09:08:31;;;;;;;23.52;21.15;;;37.90;75.60;;;;;;1825573;76;21399;-80
2023/03/26 09:11:17;;;;;;;20.40;18.37;;;37.90;75.90;;;;;;1836722;77;21185;-80
2023/03/26 09:14:07;;;;;;;20.50;18.07;;;37.80;74.80;;;;;;1823266;78;21217;-79
2023/03/26 09:16:57;;;;;;;24.23;19.00;;;37.80;75.00;;;;;;1814195;79;21361;-80
2023/03/26 09:19:39;;;;;;;21.50;19.12;;;37.70;74.40;;;;;;1810105;79;21408;-80
2023/03/26 09:22:47;;;;;;;22.58;20.12;;;37.70;74.20;;;;;;1811548;79;21124;-78
2023/03/26 09:25:28;;;;;;;20.82;18.57;;;;;;;;;;1846648;76;21378;-81
2023/03/26 09:28:11;;;;;;;20.68;18.45;;;37.60;74.20;;;;;;1790475;79;21269;-79
2023/03/26 09:31:02;;;;;;;22.62;19.48;;;37.70;74.60;;;;;;1802966;78;21205;-78
2023/03/26 09:33:55;;;;;;;20.25;17.80;;;37.60;75.10;;;;;;1798905;80;21172;-80
2023/03/26 09:36:40;;;;;;;20.55;17.55;;;37.70;74.60;;;;;;1862454;76;21400;-79
2023/03/26 09:39:26;;;;;;;20.97;17.70;;;37.60;74.20;;;;;;1835180;77;21210;-80
2023/03/26 09:42:08;;;;;;;18.67;16.67;;;37.70;73.20;;;;;;1854219;76;21662;-81
2023/03/26 09:44:51;;;;;;;18.27;16.42;;;37.60;73.30;;;;;;1828354;78;21175;-80
2023/03/26 09:47:37;;;;;;;18.73;16.73;;;37.60;74.20;;;;;;1860584;77;21130;-80
2023/03/26 09:50:15;;;;;;;;;;;37.50;73.40;;;;;;1828384;77;21152;-81
2023/03/26 09:53:14;;;;;;;17.80;16.00;;;37.50;75.20;;;;;;1857395;77;20252;-80
2023/03/26 09:55:55;;;;;;;19.42;16.75;;;37.50;73.80;;;;;;1827405;78;21183;-78
2023/03/26 09:58:41;;;;;;;23.38;16.40;;;37.60;74.60;;;;;;1856598;76;21504;-80
2023/03/26 10:01:28;;;;;;;17.52;15.63;;;37.60;74.30;;;;;;1823154;78;21206;-81
2023/03/26 10:04:14;;;;;;;20.65;17.32;;;37.40;74.30;;;;;;1828405;77;21066;-80
2023/03/26 10:06:48;;;;;;;;;;;37.40;74.40;;;;;;1828990;77;21116;-79
2023/03/26 10:09:33;;;;;;;17.27;15.53;;;37.40;75.70;;;;;;1848412;77;20173;-81
2023/03/26 10:12:21;;;;;;;19.17;17.15;;;37.40;73.60;;;;;;1825087;78;21155;-81
2023/03/26 10:15:07;;;;;;;20.75;16.57;;;37.40;74.10;;;;;;1856658;77;21114;-80
2023/03/26 10:17:45;;;;;;;;;;;37.40;74.20;;;;;;1829598;78;21148;-79
2023/03/26 10:20:42;;;;;;;20.35;16.93;;;37.30;75.10;;;;;;1850366;76;20527;-78
2023/03/26 10:23:19;;;;;;;20.10;18.00;;;37.40;74.90;;;;;;1826720;77;21225;-80
2023/03/26 10:26:27;;;;;;;21.30;17.27;;;37.20;74.30;;;;;;1854250;77;21706;-80
2023/03/26 10:29:13;;;;;;;19.10;16.97;;;37.30;74.30;;;;;;1844019;77;21156;-79
2023/03/26 10:31:50;;;;;;;19.95;17.27;;;37.10;74.60;;;;;;1815709;77;21315;-79
2023/03/26 10:34:32;;;;;;;22.60;17.07;;;37.20;74.80;;;;;;1840918;76;21194;-80
2023/03/26 10:37:21;;;;;;;19.77;17.12;;;37.00;74.90;;;;;;1841717;76;21642;-80
2023/03/26 10:40:25;;;;;;;20.45;18.32;;;37.00;75.00;;;;;;1843390;78;21156;-80
2023/03/26 10:43:04;;;;;;;20.35;17.42;;;37.00;75.00;;;;;;1843964;76;21123;-80
2023/03/26 10:45:40;;;;;;;20.10;18.10;;;36.90;75.30;;;;;;1828205;76;21203;-80
2023/03/26 10:48:30;;;;;;;22.10;18.23;;;36.90;75.40;;;;;;1829952;76;21590;-81
2023/03/26 10:51:25;;;;;;;22.52;18.45;;;36.90;75.90;;;;;;1820501;78;21226;-80
2023/03/26 10:53:59;;;;;;;20.52;18.27;;;36.80;76.10;;;;;;1825448;78;21542;-80
2023/03/26 10:56:48;;;;;;;20.08;18.05;;;36.80;76.40;;;;;;1868344;76;21199;-80
2023/03/26 10:59:20;;;;;;;19.67;17.67;;;36.80;76.60;;;;;;1867842;76;21249;-80
2023/03/26 11:02:05;;;;;;;22.35;19.42;;;36.80;76.70;;;;;;1871713;76;21156;-80
2023/03/26 11:04:51;;;;;;;21.20;19.02;;;36.70;76.80;;;;;;1870787;76;21784;-80
2023/03/26 11:07:40;;;;;;;22.00;19.67;;;36.70;76.80;;;;;;1854828;76;21454;-80
2023/03/26 11:10:22;;;;;;;21.97;18.77;;;36.70;77.00;;;;;;1889045;75;21285;-80
2023/03/26 11:13:05;;;;;;;25.05;19.65;;;36.60;76.70;;;;;;1889339;75;21145;-80
2023/03/26 11:15:39;;;;;;;21.77;19.50;;;36.60;76.80;;;;;;1888948;75;21252;-80
2023/03/26 11:18:13;;;;;;;21.90;18.35;;;36.50;77.00;;;;;;1890044;76;21128;-80
2023/03/26 11:20:59;;;;;;;23.40;19.70;;;36.50;77.00;;;;;;1880412;76;21168;-80
2023/03/26 11:23:40;;;;;;;24.20;19.50;;;36.40;76.90;;;;;;1844682;76;21190;-80
2023/03/26 11:26:19;;;;;;;25.40;20.25;;;36.40;77.10;;;;;;1851805;76;21160;-79
2023/03/26 11:29:05;;;;;;;21.93;19.67;;;36.40;77.50;;;;;;1842643;77;21147;-80
2023/03/26 11:31:55;;;;;;;24.90;20.75;;;36.40;77.70;;;;;;1847438;76;21547;-80
2023/03/26 11:34:35;;;;;;;22.87;20.48;;;36.30;77.70;;;;;;1859765;76;21088;-81
2023/03/26 11:37:09;;;;;;;23.62;21.17;;;36.40;77.40;;;;;;1874403;76;21125;-80
2023/03/26 11:39:51;;;;;;;22.90;19.82;;;36.30;77.60;;;;;;1873879;76;21144;-80
2023/03/26 11:42:24;;;;;;;27.10;21.82;;;36.20;77.80;;;;;;1873948;76;21179;-80
2023/03/26 11:45:01;;;;;;;25.80;23.10;;;36.30;78.20;;;;;;1873900;76;21231;-80
2023/03/26 11:47:40;;;;;;;26.25;21.60;;;36.10;78.10;;;;;;1877829;76;21578;-81
2023/03/26 11:50:16;;;;;;;25.43;21.60;;;36.10;78.40;;;;;;1853669;76;21153;-82
2023/03/26 11:52:47;;;;;;;26.35;21.23;;;36.10;78.40;;;;;;1870049;75;21144;-80
2023/03/26 11:55:18;;;;;;;22.93;20.43;;;36.10;78.60;;;;;;1812279;77;21167;-80
2023/03/26 11:57:52;;;;;;;26.90;20.52;;;36.10;78.60;;;;;;1841968;76;21121;-81
2023/03/26 12:00:26;;;;;;;27.58;21.73;;;36.00;78.70;;;;;;1868619;76;21129;-80
2023/03/26 12:02:58;;;;;;;27.07;21.87;;;36.00;78.80;;;;;;1860003;76;21119;-81
2023/03/26 12:05:33;;;;;;;26.00;22.00;;;36.00;79.10;;;;;;1825653;77;21143;-81
2023/03/26 12:08:05;;;;;;;26.87;21.55;;;36.00;79.10;;;;;;1869296;76;21202;-81
2023/03/26 12:10:38;;;;;;;27.15;23.65;;;36.00;78.90;;;;;;1859039;76;21186;-81
2023/03/26 12:13:28;;;;;;;28.05;22.67;;;35.80;56.30;;;;;;1862262;76;21104;-80
2023/03/26 12:16:03;;;;;;;27.35;22.42;;;35.80;54.70;;;;;;1857932;76;21348;-81
2023/03/26 12:18:34;;;;;;;28.42;23.55;;;35.60;55.30;;;;;;1866163;76;21199;-81
2023/03/26 12:21:10;;;;;;;24.60;22.00;;;35.70;51.80;;;;;;1870683;76;21714;-81
2023/03/26 12:23:47;;;;;;;28.05;22.93;;;35.60;52.20;;;;;;1843685;76;21140;-81
2023/03/26 12:26:23;;;;;;;26.10;23.02;;;35.60;50.50;;;;;;1843226;76;21207;-81
2023/03/26 12:28:54;;;;;;;35.88;23.92;;;35.60;50.30;;;;;;1843739;75;21152;-81
2023/03/26 12:31:25;;;;;;;26.07;22.45;;;35.60;50.20;;;;;;1862371;76;21179;-81
2023/03/26 12:34:17;;;;;;;27.58;22.87;;;35.60;51.20;;;;;;1856721;76;21254;-81
2023/03/26 12:36:53;;;;;;;73.95;53.13;;;35.50;49.50;;;;;;1853644;76;21259;-79
2023/03/26 12:39:30;;;;;;;853.25;718.25;;;35.50;49.30;;;;;;1853049;76;21113;-81
2023/03/26 12:42:05;;;;;;;113.10;95.72;;;35.50;49.70;;;;;;1861309;76;21156;-81
2023/03/26 12:44:48;;;;;;;36.85;29.02;;;35.50;50.40;;;;;;1849851;76;21148;-82
2023/03/26 12:47:29;;;;;;;46.85;40.67;;;35.50;49.60;;;;;;1856436;76;21689;-79
2023/03/26 12:50:02;;;;;;;55.95;47.98;;;35.50;49.90;;;;;;1861778;77;21152;-81
2023/03/26 12:53:10;;;;;;;36.23;31.57;;;35.50;50.00;;;;;;1857252;77;21171;-78
2023/03/26 12:55:44;;;;;;;36.85;32.67;;;35.50;48.70;;;;;;1868013;76;21172;-79
2023/03/26 12:58:37;;;;;;;45.23;39.63;;;35.50;48.80;;;;;;1844940;76;21211;-79
2023/03/26 13:01:14;;;;;;;39.18;33.78;;;35.60;48.90;;;;;;1837045;78;21214;-80
2023/03/26 13:04:09;;;;;;;33.50;28.62;;;35.60;49.20;;;;;;1865228;76;21203;-80
2023/03/26 13:06:49;;;;;;;31.00;27.13;;;35.60;48.90;;;;;;1866955;76;21904;-80
2023/03/26 13:09:34;;;;;;;34.00;28.25;;;35.60;49.00;;;;;;1858069;76;21208;-81
2023/03/26 13:12:24;;;;;;;;;;;35.60;49.10;;;;;;1860600;76;21548;-79
2023/03/26 13:15:16;;;;;;;42.55;35.23;;;35.60;49.10;;;;;;1844625;75;20308;-78
2023/03/26 13:17:59;;;;;;;31.68;27.82;;;35.60;49.40;;;;;;1841577;77;21116;-79
2023/03/26 13:20:47;;;;;;;36.58;32.73;;;35.60;49.50;;;;;;1817928;76;21594;-79
2023/03/26 13:23:40;;;;;;;36.35;32.55;;;35.60;49.70;;;;;;1852879;77;21160;-79
2023/03/26 13:26:13;;;;;;;41.83;34.38;;;35.50;49.80;;;;;;1839890;77;21754;-80
2023/03/26 13:28:56;;;;;;;31.55;27.07;;;35.40;50.60;;;;;;1862926;76;21145;-79
2023/03/26 13:31:41;;;;;;;32.10;25.60;;;35.50;50.10;;;;;;1864428;76;21187;-79